createdAt,value
2022-12-31T00:01:23.696Z,100079.34
2022-12-31T00:03:50.636Z,100085.06
2022-12-31T00:06:34.303Z,100088.63
2022-12-31T00:09:04.911Z,100089.06
2022-12-31T00:11:32.474Z,100081.88
2022-12-31T00:13:59.669Z,100073.13
2022-12-31T00:16:29.704Z,100073.53
2022-12-31T00:19:01.022Z,100072.88
2022-12-31T00:21:29.781Z,100089.22
2022-12-31T00:23:56.694Z,100074.00
2022-12-31T00:26:26.025Z,100076.78
2022-12-31T00:28:54.654Z,100086.09
2022-12-31T00:31:26.796Z,100081.56
2022-12-31T00:33:53.496Z,100084.88
2022-12-31T00:36:22.681Z,100083.19
2022-12-31T00:38:51.052Z,100086.94
2022-12-31T00:41:19.652Z,100100.31
2022-12-31T00:43:46.606Z,100072.38
2022-12-31T00:46:13.825Z,100085.88
2022-12-31T00:48:40.841Z,100071.50
2022-12-31T00:51:10.305Z,100077.03
2022-12-31T00:53:37.896Z,100080.69
2022-12-31T00:56:16.635Z,100069.91
2022-12-31T00:58:43.920Z,100077.88
2022-12-31T01:01:23.404Z,100075.19
2022-12-31T01:03:53.183Z,100068.19
2022-12-31T01:06:19.858Z,100074.34
2022-12-31T01:08:49.084Z,100073.59
2022-12-31T01:11:19.028Z,100067.22
2022-12-31T01:13:47.567Z,100069.16
2022-12-31T01:16:14.600Z,100073.06
2022-12-31T01:18:41.620Z,100079.44
2022-12-31T01:21:09.800Z,100060.44
2022-12-31T01:23:36.378Z,100083.63
2022-12-31T01:26:04.749Z,100088.91
2022-12-31T01:28:31.452Z,100100.56
2022-12-31T01:30:58.784Z,100104.22
2022-12-31T01:33:25.371Z,100102.53
2022-12-31T01:35:51.826Z,100085.25
2022-12-31T01:38:18.246Z,100083.50
2022-12-31T01:40:44.648Z,100096.88
2022-12-31T01:43:21.041Z,100091.78
2022-12-31T01:45:51.840Z,100093.50
2022-12-31T01:48:25.362Z,100092.53
2022-12-31T01:50:53.618Z,100087.13
2022-12-31T01:53:20.625Z,100096.59
2022-12-31T01:55:49.486Z,100090.47
2022-12-31T01:58:19.579Z,100101.16
2022-12-31T02:00:47.298Z,100091.84
2022-12-31T02:03:14.392Z,100100.03
2022-12-31T02:05:45.769Z,100099.19
2022-12-31T02:08:12.457Z,100079.94
2022-12-31T02:10:38.938Z,100078.25
2022-12-31T02:13:05.885Z,100077.59
2022-12-31T02:15:41.246Z,100072.19
2022-12-31T02:18:22.914Z,100076.75
2022-12-31T02:21:20.902Z,100085.91
2022-12-31T02:24:16.124Z,100084.31
2022-12-31T02:26:53.532Z,100098.34
2022-12-31T02:29:38.306Z,100104.94
2022-12-31T02:32:07.733Z,100104.06
2022-12-31T02:34:44.704Z,100095.97
2022-12-31T02:37:13.396Z,100108.25
2022-12-31T02:39:43.011Z,100102.63
2022-12-31T02:42:10.834Z,100101.25
2022-12-31T02:44:40.076Z,100095.97
2022-12-31T02:47:06.929Z,100107.84
2022-12-31T02:50:04.487Z,100106.56
2022-12-31T02:52:39.874Z,100102.06
2022-12-31T02:55:14.375Z,100093.88
2022-12-31T02:57:47.624Z,100096.41
2022-12-31T03:00:35.095Z,100095.47
2022-12-31T03:03:03.151Z,100101.59
2022-12-31T03:05:33.616Z,100105.25
2022-12-31T03:08:00.242Z,100111.00
2022-12-31T03:10:26.642Z,100121.69
2022-12-31T03:12:53.259Z,100123.19
2022-12-31T03:15:21.355Z,100113.88
2022-12-31T03:17:47.761Z,100135.69
2022-12-31T03:20:32.936Z,100112.41
2022-12-31T03:22:59.404Z,100122.44
2022-12-31T03:25:35.151Z,100125.25
2022-12-31T03:28:04.844Z,100116.50
2022-12-31T03:30:32.522Z,100112.44
2022-12-31T03:33:00.070Z,100112.31
2022-12-31T03:35:28.183Z,100106.19
2022-12-31T03:37:54.666Z,100098.94
2022-12-31T03:40:22.634Z,100111.56
2022-12-31T03:42:49.144Z,100099.28
2022-12-31T03:45:16.016Z,100105.53
2022-12-31T03:47:42.691Z,100106.63
2022-12-31T03:50:11.251Z,100094.34
2022-12-31T03:52:38.035Z,100083.78
2022-12-31T03:55:05.162Z,100103.66
2022-12-31T03:57:31.799Z,100101.06
2022-12-31T03:59:58.482Z,100098.47
2022-12-31T04:02:28.830Z,100101.28
2022-12-31T04:04:55.918Z,100101.50
2022-12-31T04:07:22.337Z,100110.78
2022-12-31T04:09:48.747Z,100104.75
2022-12-31T04:12:15.298Z,100108.75
2022-12-31T04:14:41.757Z,100106.16
2022-12-31T04:17:08.263Z,100101.88
2022-12-31T04:19:34.645Z,100104.47
2022-12-31T04:22:01.518Z,100109.00
2022-12-31T04:24:27.965Z,100116.44
2022-12-31T04:26:54.489Z,100110.50
2022-12-31T04:29:20.877Z,100099.97
2022-12-31T04:31:47.341Z,100099.41
2022-12-31T04:34:13.887Z,100090.81
2022-12-31T04:36:40.340Z,100089.31
2022-12-31T04:39:06.862Z,100086.72
2022-12-31T04:41:33.325Z,100093.16
2022-12-31T04:44:00.847Z,100091.66
2022-12-31T04:46:30.480Z,100102.78
2022-12-31T04:48:57.498Z,100105.56
2022-12-31T04:51:25.481Z,100119.28
2022-12-31T04:53:52.058Z,100133.72
2022-12-31T04:56:19.009Z,100134.88
2022-12-31T04:58:45.541Z,100131.44
2022-12-31T05:01:13.102Z,100132.44
2022-12-31T05:03:40.110Z,100126.38
2022-12-31T05:06:12.495Z,100124.66
2022-12-31T05:08:38.907Z,100126.38
2022-12-31T05:11:05.627Z,100139.94
2022-12-31T05:13:33.576Z,100142.53
2022-12-31T05:16:01.157Z,100147.94
2022-12-31T05:18:28.270Z,100148.03
2022-12-31T05:20:54.672Z,100138.22
2022-12-31T05:23:21.358Z,100143.72
2022-12-31T05:25:48.378Z,100152.75
2022-12-31T05:28:15.663Z,100139.28
2022-12-31T05:30:42.987Z,100141.69
2022-12-31T05:33:10.127Z,100144.47
2022-12-31T05:35:36.687Z,100135.53
2022-12-31T05:38:03.713Z,100139.09
2022-12-31T05:40:30.140Z,100138.22
2022-12-31T05:42:56.672Z,100138.22
2022-12-31T05:45:30.080Z,100126.59
2022-12-31T05:47:57.097Z,100122.28
2022-12-31T05:50:23.508Z,100129.47
2022-12-31T05:52:50.744Z,100116.00
2022-12-31T05:55:17.317Z,100105.25
2022-12-31T05:57:43.761Z,100120.50
2022-12-31T06:00:10.721Z,100118.59
2022-12-31T06:02:37.279Z,100123.91
2022-12-31T06:05:04.253Z,100129.94
2022-12-31T06:07:30.741Z,100132.19
2022-12-31T06:09:57.168Z,100128.31
2022-12-31T06:12:23.593Z,100122.06
2022-12-31T06:14:50.040Z,100119.28
2022-12-31T06:17:16.545Z,100120.22
2022-12-31T06:19:42.975Z,100114.09
2022-12-31T06:22:09.442Z,100113.75
2022-12-31T06:24:35.904Z,100107.41
2022-12-31T06:27:02.365Z,100109.25
2022-12-31T06:29:28.888Z,100115.41
2022-12-31T06:31:55.284Z,100118.19
2022-12-31T06:34:21.646Z,100120.78
2022-12-31T06:36:48.020Z,100116.25
2022-12-31T06:39:14.481Z,100117.84
2022-12-31T06:41:40.869Z,100104.19
2022-12-31T06:44:07.379Z,100095.88
2022-12-31T06:46:33.838Z,100094.47
2022-12-31T06:49:00.278Z,100097.25
2022-12-31T06:51:26.703Z,100098.84
2022-12-31T06:53:53.136Z,100095.25
2022-12-31T06:56:31.319Z,100097.50
2022-12-31T06:59:00.531Z,100100.78
2022-12-31T07:01:51.996Z,100101.06
2022-12-31T07:04:56.059Z,100102.69
2022-12-31T07:07:31.586Z,100105.44
2022-12-31T07:10:31.990Z,100098.22
2022-12-31T07:13:10.550Z,100070.13
2022-12-31T07:15:45.756Z,100071.75
2022-12-31T07:18:20.928Z,100074.97
2022-12-31T07:20:47.481Z,100074.72
2022-12-31T07:23:14.107Z,100079.78
2022-12-31T07:25:49.316Z,100077.09
2022-12-31T07:28:44.588Z,100074.25
2022-12-31T07:31:41.381Z,100079.16
2022-12-31T07:34:25.308Z,100078.22
2022-12-31T07:37:04.476Z,100080.69
2022-12-31T07:39:52.652Z,100075.28
2022-12-31T07:42:52.213Z,100087.56
2022-12-31T07:45:32.250Z,100083.03
2022-12-31T07:48:02.401Z,100068.94
2022-12-31T07:50:29.592Z,100062.91
2022-12-31T07:52:56.228Z,100070.00
2022-12-31T07:55:22.621Z,100068.69
2022-12-31T07:58:03.299Z,100082.19
2022-12-31T08:00:31.126Z,100075.81
2022-12-31T08:03:28.384Z,100090.19
2022-12-31T08:06:15.147Z,100094.63
2022-12-31T08:08:58.639Z,100079.16
2022-12-31T08:11:35.307Z,100074.72
2022-12-31T08:14:02.760Z,100090.19
2022-12-31T08:16:30.265Z,100094.72
2022-12-31T08:18:56.956Z,100100.63
2022-12-31T08:21:36.767Z,100095.22
2022-12-31T08:24:19.486Z,100109.59
2022-12-31T08:26:54.656Z,100118.56
2022-12-31T08:29:35.695Z,100089.00
2022-12-31T08:32:22.757Z,100109.47
2022-12-31T08:35:02.432Z,100095.22
2022-12-31T08:37:56.809Z,100116.34
2022-12-31T08:40:38.293Z,100110.09
2022-12-31T08:43:13.789Z,100114.41
2022-12-31T08:45:51.947Z,100116.00
2022-12-31T08:48:40.652Z,100114.53
2022-12-31T08:51:14.157Z,100129.72
2022-12-31T08:53:41.173Z,100117.13
2022-12-31T08:56:18.705Z,100122.75
2022-12-31T08:59:22.170Z,100119.94
2022-12-31T09:02:07.131Z,100143.34
2022-12-31T09:05:04.023Z,100137.84
2022-12-31T09:07:45.074Z,100150.28
2022-12-31T09:10:28.021Z,100154.00
2022-12-31T09:13:25.956Z,100148.88
2022-12-31T09:16:18.805Z,100166.19
2022-12-31T09:18:45.337Z,100129.09
2022-12-31T09:21:14.832Z,100149.50
2022-12-31T09:23:41.954Z,100159.25
2022-12-31T09:26:23.953Z,100164.13
2022-12-31T09:29:14.699Z,100148.03
2022-12-31T09:32:31.684Z,100187.97
2022-12-31T09:35:11.225Z,100197.66
2022-12-31T09:37:49.585Z,100186.00
2022-12-31T09:40:30.723Z,100184.03
2022-12-31T09:43:23.225Z,100177.06
2022-12-31T09:46:16.951Z,100196.09
2022-12-31T09:49:01.388Z,100186.00
2022-12-31T09:51:32.683Z,100202.13
2022-12-31T09:54:32.862Z,100207.41
2022-12-31T09:57:05.165Z,100213.78
2022-12-31T10:00:15.830Z,100215.13
2022-12-31T10:03:07.139Z,100223.84
2022-12-31T10:06:03.748Z,100223.38
2022-12-31T10:09:02.235Z,100223.97
2022-12-31T10:11:48.592Z,100228.03
2022-12-31T10:14:49.672Z,100224.47
2022-12-31T10:17:25.370Z,100235.81
2022-12-31T10:20:24.724Z,100251.03
2022-12-31T10:23:18.973Z,100250.66
2022-12-31T10:26:19.062Z,100243.56
2022-12-31T10:29:06.082Z,100238.25
2022-12-31T10:32:01.559Z,100243.06
2022-12-31T10:34:42.472Z,100227.38
2022-12-31T10:37:18.499Z,100238.44
2022-12-31T10:39:58.714Z,100229.88
2022-12-31T10:42:56.334Z,100216.81
2022-12-31T10:45:41.341Z,100242.16
2022-12-31T10:48:34.322Z,100266.41
2022-12-31T10:51:29.058Z,100256.69
2022-12-31T10:54:12.901Z,100253.00
2022-12-31T10:56:39.219Z,100267.78
2022-12-31T10:59:42.549Z,100257.19
2022-12-31T11:02:32.476Z,100254.97
2022-12-31T11:05:17.687Z,100249.31
2022-12-31T11:08:02.677Z,100268.72
2022-12-31T11:10:45.797Z,100270.69
2022-12-31T11:13:37.098Z,100264.28
2022-12-31T11:16:22.409Z,100257.50
2022-12-31T11:19:04.122Z,100260.38
2022-12-31T11:21:50.523Z,100267.47
2022-12-31T11:24:55.877Z,100265.97
2022-12-31T11:27:32.063Z,100261.16
2022-12-31T11:30:04.621Z,100271.84
2022-12-31T11:32:50.831Z,100281.41
2022-12-31T11:35:36.054Z,100267.03
2022-12-31T11:38:17.034Z,100262.59
2022-12-31T11:40:54.147Z,100244.88
2022-12-31T11:43:26.918Z,100242.06
2022-12-31T11:45:59.078Z,100244.41
2022-12-31T11:48:32.680Z,100228.09
2022-12-31T11:51:14.410Z,100241.72
2022-12-31T11:54:02.817Z,100235.56
2022-12-31T11:56:37.589Z,100233.72
2022-12-31T11:59:14.365Z,100242.72
2022-12-31T12:01:48.256Z,100231.00
2022-12-31T12:04:14.722Z,100235.56
2022-12-31T12:06:42.794Z,100239.13
2022-12-31T12:09:19.483Z,100235.81
2022-12-31T12:11:45.977Z,100241.22
2022-12-31T12:14:29.794Z,100236.88
2022-12-31T12:17:04.333Z,100245.53
2022-12-31T12:19:33.820Z,100227.56
2022-12-31T12:22:13.872Z,100251.16
2022-12-31T12:24:51.161Z,100261.97
2022-12-31T12:27:23.924Z,100245.53
2022-12-31T12:29:50.303Z,100259.03
2022-12-31T12:32:19.629Z,100262.47
2022-12-31T12:34:49.806Z,100281.63
2022-12-31T12:37:32.951Z,100263.00
2022-12-31T12:40:04.221Z,100282.66
2022-12-31T12:42:31.009Z,100287.09
2022-12-31T12:45:02.224Z,100284.75
2022-12-31T12:47:28.920Z,100280.22
2022-12-31T12:49:55.791Z,100271.75
2022-12-31T12:52:34.476Z,100273.13
2022-12-31T12:55:00.893Z,100272.13
2022-12-31T12:57:38.435Z,100270.13
2022-12-31T13:00:16.704Z,100275.00
2022-12-31T13:02:57.279Z,100283.25
2022-12-31T13:05:56.633Z,100293.34
2022-12-31T13:09:01.369Z,100294.28
2022-12-31T13:11:54.636Z,100296.38
2022-12-31T13:14:26.838Z,100293.91
2022-12-31T13:17:00.546Z,100282.09
2022-12-31T13:19:53.436Z,100304.38
2022-12-31T13:22:25.759Z,100303.03
2022-12-31T13:25:04.435Z,100302.19
2022-12-31T13:27:37.714Z,100305.75
2022-12-31T13:30:14.119Z,100300.97
2022-12-31T13:32:44.772Z,100300.59
2022-12-31T13:35:44.555Z,100324.09
2022-12-31T13:38:39.019Z,100307.34
2022-12-31T13:41:13.441Z,100316.56
2022-12-31T13:43:51.175Z,100312.38
2022-12-31T13:46:38.823Z,100302.88
2022-12-31T13:49:15.784Z,100303.97
2022-12-31T13:51:48.289Z,100295.34
2022-12-31T13:54:36.325Z,100317.44
2022-12-31T13:57:10.860Z,100333.91
2022-12-31T13:59:45.466Z,100316.50
2022-12-31T14:02:46.774Z,100323.97
2022-12-31T14:05:26.530Z,100312.78
2022-12-31T14:07:59.477Z,100322.91
2022-12-31T14:10:44.514Z,100325.09
2022-12-31T14:13:49.986Z,100309.84
2022-12-31T14:16:21.396Z,100298.97
2022-12-31T14:19:00.967Z,100299.44
2022-12-31T14:21:35.587Z,100304.63
2022-12-31T14:24:45.875Z,100309.47
2022-12-31T14:27:23.045Z,100307.78
2022-12-31T14:29:55.761Z,100297.09
2022-12-31T14:32:27.265Z,100305.69
2022-12-31T14:35:06.949Z,100303.53
2022-12-31T14:37:47.314Z,100300.47
2022-12-31T14:40:42.970Z,100293.88
2022-12-31T14:43:27.423Z,100306.19
2022-12-31T14:46:10.337Z,100297.09
2022-12-31T14:49:02.954Z,100306.19
2022-12-31T14:51:30.678Z,100300.66
2022-12-31T14:53:58.389Z,100323.38
2022-12-31T14:56:44.641Z,100283.69
2022-12-31T14:59:27.422Z,100296.13
2022-12-31T15:01:55.286Z,100310.59
2022-12-31T15:04:43.989Z,100308.91
2022-12-31T15:07:19.508Z,100318.19
2022-12-31T15:10:07.831Z,100312.91
2022-12-31T15:12:56.266Z,100329.44
2022-12-31T15:15:43.643Z,100324.28
2022-12-31T15:18:28.501Z,100306.34
2022-12-31T15:21:17.110Z,100316.28
2022-12-31T15:23:44.555Z,100308.19
2022-12-31T15:26:23.210Z,100323.63
2022-12-31T15:28:59.508Z,100317.13
2022-12-31T15:31:26.594Z,100311.97
2022-12-31T15:33:56.891Z,100340.69
2022-12-31T15:36:26.733Z,100303.13
2022-12-31T15:39:05.947Z,100321.13
2022-12-31T15:42:02.954Z,100316.72
2022-12-31T15:44:55.221Z,100328.19
2022-12-31T15:47:42.936Z,100319.09
2022-12-31T15:50:19.961Z,100315.63
2022-12-31T15:52:52.060Z,100312.47
2022-12-31T15:55:33.439Z,100303.53
2022-12-31T15:58:22.566Z,100300.94
2022-12-31T16:01:15.562Z,100307.09
2022-12-31T16:03:49.862Z,100306.13
2022-12-31T16:06:16.778Z,100293.38
2022-12-31T16:08:49.734Z,100296.06
2022-12-31T16:11:17.440Z,100300.25
2022-12-31T16:13:50.608Z,100293.13
2022-12-31T16:16:31.625Z,100290.94
2022-12-31T16:18:59.151Z,100320.31
2022-12-31T16:21:29.939Z,100304.56
2022-12-31T16:23:58.317Z,100286.16
2022-12-31T16:26:31.369Z,100298.13
2022-12-31T16:29:01.573Z,100279.59
2022-12-31T16:31:30.056Z,100282.81
2022-12-31T16:34:07.284Z,100285.16
2022-12-31T16:36:33.879Z,100293.38
2022-12-31T16:39:27.434Z,100264.50
2022-12-31T16:42:09.439Z,100280.16
2022-12-31T16:44:36.109Z,100277.09
2022-12-31T16:47:03.926Z,100289.69
2022-12-31T16:49:33.148Z,100283.16
2022-12-31T16:52:05.755Z,100265.50
2022-12-31T16:54:40.636Z,100249.25
2022-12-31T16:57:10.893Z,100266.13
2022-12-31T16:59:45.034Z,100269.56
2022-12-31T17:02:26.883Z,100256.63
2022-12-31T17:04:56.332Z,100250.88
2022-12-31T17:07:38.339Z,100239.22
2022-12-31T17:10:07.607Z,100232.56
2022-12-31T17:13:01.036Z,100239.19
2022-12-31T17:15:49.757Z,100230.84
2022-12-31T17:18:22.291Z,100227.53
2022-12-31T17:20:51.216Z,100229.63
2022-12-31T17:23:31.384Z,100212.53
2022-12-31T17:26:08.769Z,100224.22
2022-12-31T17:28:55.272Z,100222.97
2022-12-31T17:31:27.568Z,100239.69
2022-12-31T17:34:04.103Z,100229.13
2022-12-31T17:36:30.623Z,100238.47
2022-12-31T17:39:15.442Z,100232.09
2022-12-31T17:41:44.395Z,100232.19
2022-12-31T17:44:17.136Z,100228.00
2022-12-31T17:46:44.815Z,100222.22
2022-12-31T17:49:12.903Z,100233.28
2022-12-31T17:51:44.014Z,100237.09
2022-12-31T17:54:15.421Z,100245.97
2022-12-31T17:56:42.653Z,100237.47
2022-12-31T17:59:15.719Z,100245.94
2022-12-31T18:01:42.290Z,100229.19
2022-12-31T18:04:14.446Z,100221.00
2022-12-31T18:06:41.436Z,100230.94
2022-12-31T18:09:07.914Z,100233.94
2022-12-31T18:11:35.794Z,100229.91
2022-12-31T18:14:02.332Z,100227.84
2022-12-31T18:16:29.928Z,100238.44
2022-12-31T18:18:58.850Z,100201.84
2022-12-31T18:21:32.454Z,100237.81
2022-12-31T18:26:26.707Z,100236.41
2022-12-31T18:28:53.567Z,100230.09
2022-12-31T18:31:23.039Z,100239.97
2022-12-31T18:33:51.003Z,100239.19
2022-12-31T18:36:19.016Z,100235.47
2022-12-31T18:38:45.739Z,100231.06
2022-12-31T18:41:23.149Z,100244.88
2022-12-31T18:43:50.317Z,100247.38
2022-12-31T18:46:19.412Z,100239.72
2022-12-31T18:48:45.854Z,100238.75
2022-12-31T18:51:18.125Z,100256.84
2022-12-31T18:53:45.096Z,100255.00
2022-12-31T18:56:15.072Z,100249.69
2022-12-31T18:58:42.324Z,100235.53
2022-12-31T19:01:29.138Z,100243.41
2022-12-31T19:03:57.618Z,100267.09
2022-12-31T19:06:24.513Z,100270.41
2022-12-31T19:08:51.493Z,100254.53
2022-12-31T19:11:18.473Z,100271.28
2022-12-31T19:13:45.397Z,100272.06
2022-12-31T19:16:13.249Z,100269.47
2022-12-31T19:18:41.262Z,100264.84
2022-12-31T19:21:15.064Z,100252.28
2022-12-31T19:23:41.505Z,100257.28
2022-12-31T19:26:13.978Z,100271.97
2022-12-31T19:28:40.390Z,100272.28
2022-12-31T19:31:06.807Z,100270.66
2022-12-31T19:33:33.179Z,100274.72
2022-12-31T19:35:59.581Z,100279.69
2022-12-31T19:38:26.975Z,100285.56
2022-12-31T19:40:53.848Z,100290.31
2022-12-31T19:43:22.604Z,100303.38
2022-12-31T19:45:50.374Z,100306.50
2022-12-31T19:48:19.367Z,100285.94
2022-12-31T19:50:48.422Z,100309.84
2022-12-31T19:53:20.464Z,100316.22
2022-12-31T19:55:47.727Z,100329.31
2022-12-31T19:58:18.791Z,100335.47
2022-12-31T20:00:53.737Z,100330.31
2022-12-31T20:03:32.427Z,100332.91
2022-12-31T20:06:07.660Z,100328.81
2022-12-31T20:08:35.335Z,100323.38
2022-12-31T20:11:13.380Z,100333.00
2022-12-31T20:13:41.003Z,100338.50
2022-12-31T20:16:13.366Z,100341.34
2022-12-31T20:18:41.241Z,100358.91
2022-12-31T20:21:13.781Z,100345.19
2022-12-31T20:23:40.420Z,100347.94
2022-12-31T20:26:06.931Z,100340.25
2022-12-31T20:28:33.296Z,100353.88
2022-12-31T20:31:08.284Z,100359.81
2022-12-31T20:33:34.864Z,100357.00
2022-12-31T20:36:03.313Z,100357.31
2022-12-31T20:38:29.874Z,100347.91
2022-12-31T20:41:15.586Z,100364.06
2022-12-31T20:43:42.618Z,100350.09
2022-12-31T20:46:16.257Z,100350.50
2022-12-31T20:48:44.230Z,100342.69
2022-12-31T20:51:11.333Z,100333.75
2022-12-31T20:53:38.032Z,100314.38
2022-12-31T20:56:09.551Z,100322.75
2022-12-31T20:58:36.056Z,100315.03
2022-12-31T21:01:05.817Z,100313.69
2022-12-31T21:06:18.709Z,100325.53
2022-12-31T21:08:45.465Z,100319.50
2022-12-31T21:11:31.170Z,100314.47
2022-12-31T21:13:59.150Z,100321.66
2022-12-31T21:16:26.388Z,100318.16
2022-12-31T21:18:52.861Z,100301.81
2022-12-31T21:21:19.246Z,100318.19
2022-12-31T21:23:45.869Z,100319.34
2022-12-31T21:26:12.670Z,100324.63
2022-12-31T21:28:39.170Z,100330.28
2022-12-31T21:31:07.667Z,100344.44
2022-12-31T21:33:34.761Z,100341.13
2022-12-31T21:36:04.703Z,100347.00
2022-12-31T21:38:31.459Z,100348.34
2022-12-31T21:41:04.973Z,100324.75
2022-12-31T21:43:31.395Z,100332.00
2022-12-31T21:46:06.514Z,100343.94
2022-12-31T21:48:33.463Z,100345.44
2022-12-31T21:51:09.296Z,100295.22
2022-12-31T21:53:37.362Z,100317.72
2022-12-31T21:56:11.832Z,100331.75
2022-12-31T21:58:46.288Z,100333.94
2022-12-31T22:01:35.973Z,100292.16
2022-12-31T22:04:03.417Z,100368.88
2022-12-31T22:06:30.887Z,100321.44
2022-12-31T22:08:57.709Z,100329.44
2022-12-31T22:11:26.666Z,100336.13
2022-12-31T22:13:53.710Z,100334.22
2022-12-31T22:16:21.153Z,100347.56
2022-12-31T22:18:48.436Z,100351.00
2022-12-31T22:21:20.724Z,100363.56
2022-12-31T22:23:49.404Z,100340.06
2022-12-31T22:26:17.850Z,100355.31
2022-12-31T22:28:45.828Z,100363.06
2022-12-31T22:31:22.111Z,100359.50
2022-12-31T22:33:48.706Z,100367.38
2022-12-31T22:36:17.552Z,100374.91
2022-12-31T22:38:44.922Z,100376.78
2022-12-31T22:41:17.246Z,100387.53
2022-12-31T22:43:48.801Z,100401.06
2022-12-31T22:46:18.640Z,100381.00
2022-12-31T22:48:45.426Z,100378.78
2022-12-31T22:51:13.181Z,100387.41
2022-12-31T22:53:41.183Z,100382.25
2022-12-31T22:56:08.696Z,100391.84
2022-12-31T22:58:35.432Z,100392.81
2022-12-31T23:01:08.462Z,100412.53
2022-12-31T23:03:35.215Z,100401.69
2022-12-31T23:06:01.581Z,100395.31
2022-12-31T23:08:27.959Z,100415.63
2022-12-31T23:11:00.669Z,100413.53
2022-12-31T23:13:51.021Z,100392.22
2022-12-31T23:16:37.593Z,100411.75
2022-12-31T23:19:23.634Z,100414.97
2022-12-31T23:22:08.449Z,100406.22
2022-12-31T23:24:34.788Z,100416.66
2022-12-31T23:27:01.275Z,100425.31
2022-12-31T23:29:27.745Z,100414.34
2022-12-31T23:31:54.336Z,100416.19
2022-12-31T23:34:21.001Z,100412.25
2022-12-31T23:36:47.434Z,100420.59
2022-12-31T23:39:13.947Z,100415.78
2022-12-31T23:41:40.566Z,100427.47
2022-12-31T23:44:07.151Z,100438.28
2022-12-31T23:46:33.585Z,100451.34
2022-12-31T23:49:00.058Z,100422.44
2022-12-31T23:51:26.628Z,100457.50
2022-12-31T23:53:52.997Z,100448.88
2022-12-31T23:56:23.753Z,100457.56
2022-12-31T23:58:58.284Z,100460.91
